Time;durP1;ratioP1;P1;durP2;ratioP2;P2;SDS_P1;SDS_P2;PMS_P1;PMS_P2;Temp;Humidity;BMP_temperature;BMP_pressure;BME280_temperature;BME280_humidity;BME280_pressure;Samples;Min_cycle;Max_cycle;Signal;HPM_P1;HPM_P2
2022/11/01 00:01:11;;;;;;;;;;;23.80;53.90;;;;;;1556789;75;750;-57
2022/11/01 00:03:13;;;;;;;;;;;23.90;54.00;;;;;;1546145;76;692;-58
2022/11/01 00:05:15;;;;;;;;;;;23.90;54.00;;;;;;1549251;75;698;-58
2022/11/01 00:07:17;;;;;;;;;;;23.90;54.00;;;;;;1552737;75;1639;-57
2022/11/01 00:09:19;;;;;;;;;;;23.90;54.00;;;;;;1546124;75;704;-58
2022/11/01 00:11:20;;;;;;;;;;;23.90;54.00;;;;;;1547489;76;1952;-58
2022/11/01 00:13:22;;;;;;;;;;;23.90;54.00;;;;;;1553767;75;585;-56
2022/11/01 00:15:24;;;;;;;;;;;23.90;54.00;;;;;;1538061;75;796;-56
2022/11/01 00:17:26;;;;;;;;;;;23.90;54.10;;;;;;1540292;75;1136;-58
2022/11/01 00:19:28;;;;;;;;;;;23.90;54.10;;;;;;1556802;75;768;-57
2022/11/01 00:21:30;;;;;;;;;;;23.90;54.00;;;;;;1553500;75;1578;-58
2022/11/01 00:23:32;;;;;;;;;;;23.80;54.00;;;;;;1538246;75;698;-58
2022/11/01 00:25:33;;;;;;;;;;;23.80;54.00;;;;;;1558828;75;757;-57
2022/11/01 00:27:35;;;;;;;;;;;23.90;54.10;;;;;;1554418;75;1109;-56
2022/11/01 00:29:37;;;;;;;;;;;23.90;54.10;;;;;;1549752;75;1953;-58
2022/11/01 00:31:39;;;;;;;;;;;23.90;54.20;;;;;;1555193;75;755;-57
2022/11/01 00:33:41;;;;;;;;;;;23.90;54.20;;;;;;1566782;75;810;-58
2022/11/01 00:35:45;;;;;;;;;;;23.90;54.10;;;;;;1552357;75;1506;-57
2022/11/01 00:37:46;;;;;;;;;;;23.90;54.20;;;;;;1550910;75;1775;-58
2022/11/01 00:39:48;;;;;;;;;;;23.90;54.20;;;;;;1557571;76;800;-56
2022/11/01 00:41:50;;;;;;;;;;;23.80;54.20;;;;;;1559894;75;650;-55
2022/11/01 00:43:52;;;;;;;;;;;23.80;54.20;;;;;;1566720;75;759;-57
2022/11/01 00:45:54;;;;;;;;;;;23.90;54.30;;;;;;1553158;76;1215;-58
2022/11/01 00:47:56;;;;;;;;;;;23.80;54.30;;;;;;1551355;75;1068;-58
2022/11/01 00:49:58;;;;;;;;;;;23.90;54.40;;;;;;1560475;74;1962;-57
2022/11/01 00:52:00;;;;;;;;;;;23.80;54.60;;;;;;1562838;74;824;-57
2022/11/01 00:54:02;;;;;;;;;;;23.80;54.70;;;;;;1557105;75;808;-56
2022/11/01 00:56:04;;;;;;;;;;;23.80;54.70;;;;;;1559158;74;1207;-55
2022/11/01 00:58:06;;;;;;;;;;;23.90;54.70;;;;;;1571082;74;794;-55
2022/11/01 01:00:08;;;;;;;;;;;23.80;54.70;;;;;;1573684;74;755;-54
2022/11/01 01:02:10;;;;;;;;;;;23.80;54.70;;;;;;1562327;74;820;-57
2022/11/01 01:04:12;;;;;;;;;;;23.90;54.80;;;;;;1561551;74;1673;-54
2022/11/01 01:06:14;;;;;;;;;;;23.80;54.70;;;;;;1566659;74;1127;-57
2022/11/01 01:08:16;;;;;;;;;;;23.70;54.70;;;;;;1569670;74;783;-58
2022/11/01 01:10:18;;;;;;;;;;;23.80;54.70;;;;;;1560404;74;1935;-57
2022/11/01 01:12:20;;;;;;;;;;;23.90;54.70;;;;;;1566694;74;729;-57
2022/11/01 01:14:22;;;;;;;;;;;23.90;54.50;;;;;;1561937;74;767;-57
2022/11/01 01:16:23;;;;;;;;;;;23.90;54.70;;;;;;1548754;74;1142;-58
2022/11/01 01:18:26;;;;;;;;;;;23.80;54.50;;;;;;1556333;74;1678;-54
2022/11/01 01:20:28;;;;;;;;;;;23.90;54.50;;;;;;1567791;74;734;-57
2022/11/01 01:22:30;;;;;;;;;;;23.90;54.50;;;;;;1567336;74;705;-56
2022/11/01 01:24:32;;;;;;;;;;;23.90;54.40;;;;;;1564231;74;742;-54
2022/11/01 01:26:34;;;;;;;;;;;23.90;54.40;;;;;;1559587;74;1082;-58
2022/11/01 01:28:35;;;;;;;;;;;23.90;54.50;;;;;;1562891;74;746;-57
2022/11/01 01:30:40;;;;;;;;;;;23.80;54.40;;;;;;1567937;74;1922;-54
2022/11/01 01:32:42;;;;;;;;;;;23.90;54.50;;;;;;1555326;74;739;-58
2022/11/01 01:34:44;;;;;;;;;;;23.90;54.50;;;;;;1567795;74;848;-57
2022/11/01 01:36:46;;;;;;;;;;;23.90;54.40;;;;;;1560975;74;1145;-57
2022/11/01 01:38:49;;;;;;;;;;;24.00;54.40;;;;;;1555826;74;722;-58
2022/11/01 01:40:51;;;;;;;;;;;23.90;54.30;;;;;;1555805;74;817;-55
2022/11/01 01:42:53;;;;;;;;;;;23.90;54.30;;;;;;1569305;74;770;-54
2022/11/01 01:44:57;;;;;;;;;;;24.00;54.30;;;;;;1557187;74;1515;-57
2022/11/01 01:46:58;;;;;;;;;;;23.90;54.40;;;;;;1567343;74;1175;-57
2022/11/01 01:49:00;;;;;;;;;;;23.90;54.30;;;;;;1563747;74;966;-57
2022/11/01 01:51:03;;;;;;;;;;;24.00;54.30;;;;;;1553819;74;1938;-56
2022/11/01 01:53:07;;;;;;;;;;;23.90;54.30;;;;;;1559752;74;795;-58
2022/11/01 01:55:09;;;;;;;;;;;24.00;54.20;;;;;;1539586;74;1744;-57
2022/11/01 01:57:11;;;;;;;;;;;24.00;54.30;;;;;;1567373;74;1164;-56
2022/11/01 01:59:12;;;;;;;;;;;23.90;54.30;;;;;;1559897;74;1553;-55
2022/11/01 02:01:14;;;;;;;;;;;23.90;54.20;;;;;;1551529;74;806;-54
2022/11/01 02:03:16;;;;;;;;;;;23.90;54.40;;;;;;1562949;74;829;-58
2022/11/01 02:05:23;;;;;;;;;;;24.00;54.20;;;;;;1548582;74;734;-58
2022/11/01 02:07:24;;;;;;;;;;;23.90;54.30;;;;;;1556870;74;1121;-58
2022/11/01 02:09:26;;;;;;;;;;;23.90;54.30;;;;;;1555537;74;762;-57
2022/11/01 02:11:28;;;;;;;;;;;23.90;54.30;;;;;;1567725;74;1943;-57
2022/11/01 02:13:30;;;;;;;;;;;24.00;54.20;;;;;;1559253;74;1404;-57
2022/11/01 02:15:34;;;;;;;;;;;24.00;54.20;;;;;;1548906;74;747;-55
2022/11/01 02:17:37;;;;;;;;;;;23.90;54.30;;;;;;1559174;74;1736;-58
2022/11/01 02:19:41;;;;;;;;;;;23.90;54.40;;;;;;1554968;74;1500;-57
2022/11/01 02:21:47;;;;;;;;;;;23.90;54.40;;;;;;1559522;74;1433;-55
2022/11/01 02:24:03;;;;;;;;;;;23.80;54.50;;;;;;1563239;74;1981;-58
2022/11/01 02:26:09;;;;;;;;;;;23.90;54.50;;;;;;1549743;75;1828;-55
2022/11/01 02:28:29;;;;;;;;;;;23.90;54.40;;;;;;1552947;74;1668;-57
2022/11/01 02:30:39;;;;;;;;;;;23.90;54.40;;;;;;1551078;74;1947;-56
2022/11/01 02:32:48;;;;;;;;;;;23.80;54.40;;;;;;1551641;74;1822;-58
2022/11/01 02:35:04;;;;;;;;;;;23.90;54.40;;;;;;1572289;74;1604;-55
2022/11/01 02:37:16;;;;;;;;;;;23.90;54.40;;;;;;1574228;74;1141;-55
2022/11/01 02:39:19;;;;;;;;;;;23.90;54.50;;;;;;1560465;74;1921;-57
2022/11/01 02:41:31;;;;;;;;;;;23.90;54.40;;;;;;1556415;74;1550;-58
2022/11/01 02:43:38;;;;;;;;;;;23.90;54.60;;;;;;1566706;74;1630;-55
2022/11/01 02:45:41;;;;;;;;;;;23.80;54.40;;;;;;1559053;74;1699;-58
2022/11/01 02:47:43;;;;;;;;;;;23.90;54.50;;;;;;1556872;74;1123;-55
2022/11/01 02:49:45;;;;;;;;;;;23.90;54.50;;;;;;1557243;74;1056;-57
2022/11/01 02:51:47;;;;;;;;;;;23.90;54.50;;;;;;1565050;74;1932;-57
2022/11/01 02:53:49;;;;;;;;;;;24.00;54.50;;;;;;1563563;75;670;-56
2022/11/01 02:55:52;;;;;;;;;;;23.90;54.60;;;;;;1568123;74;1570;-53
2022/11/01 02:57:54;;;;;;;;;;;23.90;54.50;;;;;;1559913;74;799;-56
2022/11/01 03:00:02;;;;;;;;;;;23.90;54.70;;;;;;1531519;76;782;-54
2022/11/01 03:02:01;;;;;;;;;;;23.90;54.60;;;;;;1561839;74;1663;-57
2022/11/01 03:04:03;;;;;;;;;;;23.80;54.70;;;;;;1558123;74;1468;-57
2022/11/01 03:06:07;;;;;;;;;;;23.80;54.70;;;;;;1563271;74;1089;-57
2022/11/01 03:08:09;;;;;;;;;;;23.80;54.80;;;;;;1559959;74;925;-58
2022/11/01 03:10:11;;;;;;;;;;;23.80;54.80;;;;;;1551681;74;1530;-57
2022/11/01 03:12:18;;;;;;;;;;;23.80;54.90;;;;;;1554630;74;1934;-57
2022/11/01 03:14:32;;;;;;;;;;;23.80;54.90;;;;;;1554941;75;2274;-57
2022/11/01 03:16:35;;;;;;;;;;;23.80;54.70;;;;;;1567134;74;1146;-56
2022/11/01 03:18:38;;;;;;;;;;;23.80;54.80;;;;;;1568862;74;659;-55
2022/11/01 03:20:48;;;;;;;;;;;23.80;54.70;;;;;;1569098;74;713;-57
2022/11/01 03:22:51;;;;;;;;;;;23.80;54.70;;;;;;1561672;74;679;-55
2022/11/01 03:25:38;;;;;;;;;;;23.80;54.60;;;;;;1559396;74;1643;-57
2022/11/01 03:27:21;;;;;;;;;;;23.90;54.80;;;;;;1554490;74;1523;-56
2022/11/01 03:29:23;;;;;;;;;;;23.70;54.90;;;;;;1563255;74;1892;-58
2022/11/01 03:31:27;;;;;;;;;;;23.70;55.00;;;;;;1552583;74;1919;-58
2022/11/01 03:33:28;;;;;;;;;;;23.80;55.00;;;;;;1554390;74;713;-57
2022/11/01 03:35:31;;;;;;;;;;;23.70;55.10;;;;;;1555251;74;765;-56
2022/11/01 03:37:33;;;;;;;;;;;23.70;55.20;;;;;;1563728;74;1604;-57
2022/11/01 03:39:39;;;;;;;;;;;23.80;55.20;;;;;;1558179;74;726;-57
2022/11/01 03:41:43;;;;;;;;;;;23.70;55.30;;;;;;1559933;74;708;-57
2022/11/01 03:43:45;;;;;;;;;;;23.70;55.40;;;;;;1544899;74;1811;-57
2022/11/01 03:45:46;;;;;;;;;;;23.70;55.40;;;;;;1557997;74;700;-57
2022/11/01 03:47:48;;;;;;;;;;;23.80;55.30;;;;;;1557981;74;1145;-56
2022/11/01 03:50:08;;;;;;;;;;;23.70;55.30;;;;;;1544639;75;1042;-59
2022/11/01 03:52:10;;;;;;;;;;;23.70;55.70;;;;;;1545807;75;1936;-60
2022/11/01 03:54:12;;;;;;;;;;;23.70;55.70;;;;;;1551363;75;772;-55
2022/11/01 03:56:14;;;;;;;;;;;23.60;55.70;;;;;;1548178;75;1269;-60
2022/11/01 03:58:16;;;;;;;;;;;23.70;55.50;;;;;;1546522;75;717;-60
2022/11/01 04:00:25;;;;;;;;;;;23.70;55.30;;;;;;1551222;75;722;-59
2022/11/01 04:02:27;;;;;;;;;;;23.70;55.20;;;;;;1557761;75;681;-59
2022/11/01 04:04:29;;;;;;;;;;;23.80;55.20;;;;;;1554827;75;687;-57
2022/11/01 04:06:31;;;;;;;;;;;23.70;55.30;;;;;;1548996;75;1541;-60
2022/11/01 04:08:32;;;;;;;;;;;23.70;55.40;;;;;;1548481;75;790;-59
2022/11/01 04:10:34;;;;;;;;;;;23.70;55.30;;;;;;1565349;75;765;-59
2022/11/01 04:12:36;;;;;;;;;;;23.70;55.30;;;;;;1559644;75;1936;-59
2022/11/01 04:21:38;;;;;;;;;;;23.70;55.20;;;;;;1562892;75;1033;-57
2022/11/01 04:23:40;;;;;;;;;;;23.80;55.20;;;;;;1550790;75;711;-59
2022/11/01 04:25:42;;;;;;;;;;;23.80;55.20;;;;;;1554986;75;796;-59
2022/11/01 04:27:44;;;;;;;;;;;23.80;55.10;;;;;;1526137;76;1123;-56
2022/11/01 04:29:46;;;;;;;;;;;23.70;55.00;;;;;;1540587;75;767;-57
2022/11/01 04:31:48;;;;;;;;;;;23.80;55.10;;;;;;1556034;75;1949;-59
2022/11/01 04:33:50;;;;;;;;;;;23.80;55.00;;;;;;1555468;75;1553;-58
2022/11/01 04:35:51;;;;;;;;;;;23.80;55.00;;;;;;1562366;75;1160;-57
2022/11/01 04:37:57;;;;;;;;;;;23.60;55.00;;;;;;1567761;75;721;-55
2022/11/01 04:39:59;;;;;;;;;;;23.60;55.30;;;;;;1558809;75;786;-59
2022/11/01 04:42:00;;;;;;;;;;;23.60;55.50;;;;;;1562845;75;781;-58
2022/11/01 04:44:02;;;;;;;;;;;23.50;55.80;;;;;;1563540;75;648;-58
2022/11/01 04:46:04;;;;;;;;;;;23.50;55.90;;;;;;1566583;75;1147;-56
2022/11/01 04:48:07;;;;;;;;;;;23.50;55.90;;;;;;1559468;75;1457;-56
2022/11/01 04:50:09;;;;;;;;;;;23.50;56.00;;;;;;1558432;75;1088;-57
2022/11/01 04:52:11;;;;;;;;;;;23.50;55.80;;;;;;1541143;76;1924;-59
2022/11/01 04:54:13;;;;;;;;;;;23.40;56.10;;;;;;1537905;76;728;-56
2022/11/01 04:56:15;;;;;;;;;;;23.40;56.30;;;;;;1544033;76;1139;-58
2022/11/01 04:58:17;;;;;;;;;;;23.40;56.30;;;;;;1548785;76;908;-59
2022/11/01 05:00:18;;;;;;;;;;;23.30;56.20;;;;;;1542976;76;769;-59
2022/11/01 05:02:21;;;;;;;;;;;23.30;56.30;;;;;;1537494;76;1569;-59
2022/11/01 05:04:23;;;;;;;;;;;23.20;56.30;;;;;;1536777;76;731;-59
2022/11/01 05:06:24;;;;;;;;;;;23.20;56.30;;;;;;1536397;76;1125;-59
2022/11/01 05:08:26;;;;;;;;;;;23.20;56.80;;;;;;1537242;76;908;-58
2022/11/01 05:10:28;;;;;;;;;;;23.20;57.10;;;;;;1537346;76;667;-56
2022/11/01 05:12:30;;;;;;;;;;;23.10;57.20;;;;;;1537992;76;1953;-56
2022/11/01 05:14:32;;;;;;;;;;;23.10;57.10;;;;;;1531694;76;725;-59
2022/11/01 05:16:34;;;;;;;;;;;23.10;57.30;;;;;;1530728;76;1602;-59
2022/11/01 05:18:39;;;;;;;;;;;23.10;57.30;;;;;;1531328;76;724;-59
2022/11/01 05:20:39;;;;;;;;;;;23.10;57.40;;;;;;1537649;76;985;-58
2022/11/01 05:22:41;;;;;;;;;;;23.00;57.50;;;;;;1537103;76;722;-59
2022/11/01 05:24:43;;;;;;;;;;;23.10;57.50;;;;;;1529759;76;678;-59
2022/11/01 05:26:45;;;;;;;;;;;23.10;57.50;;;;;;1535771;76;1167;-59
2022/11/01 05:28:47;;;;;;;;;;;23.20;57.30;;;;;;1539179;76;735;-59
2022/11/01 05:30:49;;;;;;;;;;;23.10;57.30;;;;;;1533404;76;1558;-59
2022/11/01 05:32:52;;;;;;;;;;;23.10;57.50;;;;;;1535412;76;1948;-59
2022/11/01 05:34:54;;;;;;;;;;;23.10;57.40;;;;;;1539974;76;1970;-58
2022/11/01 05:36:56;;;;;;;;;;;23.10;57.40;;;;;;1542975;76;1182;-59
2022/11/01 05:38:58;;;;;;;;;;;23.10;57.50;;;;;;1539182;76;788;-59
2022/11/01 05:41:01;;;;;;;;;;;23.10;57.50;;;;;;1536168;76;741;-59
2022/11/01 05:43:03;;;;;;;;;;;23.10;57.40;;;;;;1530813;76;1382;-59
2022/11/01 05:45:06;;;;;;;;;;;23.10;57.50;;;;;;1536940;76;1577;-58
2022/11/01 05:47:07;;;;;;;;;;;23.10;57.30;;;;;;1545418;76;1169;-59
2022/11/01 05:49:09;;;;;;;;;;;23.20;57.40;;;;;;1541919;76;772;-57
2022/11/01 05:51:11;;;;;;;;;;;23.20;57.20;;;;;;1550479;75;1090;-57
2022/11/01 05:53:13;;;;;;;;;;;23.20;57.10;;;;;;1538085;75;1962;-55
2022/11/01 05:55:15;;;;;;;;;;;23.10;57.20;;;;;;1540256;75;733;-59
2022/11/01 05:57:17;;;;;;;;;;;23.10;57.30;;;;;;1545989;75;1189;-58
2022/11/01 05:59:19;;;;;;;;;;;23.20;57.10;;;;;;1535021;75;1687;-59
2022/11/01 06:01:21;;;;;;;;;;;23.10;57.20;;;;;;1547670;76;728;-60
2022/11/01 06:03:22;;;;;;;;;;;23.20;57.10;;;;;;1543139;76;799;-59
2022/11/01 06:05:25;;;;;;;;;;;23.20;57.10;;;;;;1552758;75;774;-58
2022/11/01 06:07:27;;;;;;;;;;;23.10;57.10;;;;;;1551179;75;1134;-58
2022/11/01 06:09:28;;;;;;;;;;;23.10;57.30;;;;;;1540458;75;737;-55
2022/11/01 06:11:30;;;;;;;;;;;23.20;57.30;;;;;;1548606;75;717;-59
2022/11/01 06:13:32;;;;;;;;;;;23.30;57.20;;;;;;1551485;75;1941;-59
2022/11/01 06:15:34;;;;;;;;;;;23.30;57.10;;;;;;1543570;75;726;-60
2022/11/01 06:17:36;;;;;;;;;;;23.30;57.00;;;;;;1551608;75;1133;-59
2022/11/01 06:19:38;;;;;;;;;;;23.50;56.30;;;;;;1544735;75;814;-59
2022/11/01 06:21:40;;;;;;;;;;;23.60;55.90;;;;;;1558092;75;769;-56
2022/11/01 06:23:44;;;;;;;;;;;23.60;55.60;;;;;;1540480;75;723;-59
2022/11/01 06:25:46;;;;;;;;;;;23.60;55.50;;;;;;1553456;75;2426;-56
2022/11/01 06:27:48;;;;;;;;;;;23.60;55.50;;;;;;1546097;75;1169;-59
2022/11/01 06:29:49;;;;;;;;;;;23.50;55.60;;;;;;1534168;75;775;-59
2022/11/01 06:31:51;;;;;;;;;;;23.50;55.60;;;;;;1549450;75;1947;-54
2022/11/01 06:33:53;;;;;;;;;;;23.50;55.60;;;;;;1550844;75;731;-58
2022/11/01 06:35:55;;;;;;;;;;;23.40;55.50;;;;;;1546269;75;1149;-58
2022/11/01 06:38:05;;;;;;;;;;;23.40;55.60;;;;;;1549876;75;730;-59
2022/11/01 06:40:07;;;;;;;;;;;23.40;55.60;;;;;;1546200;75;1511;-59
2022/11/01 06:42:09;;;;;;;;;;;23.30;55.70;;;;;;1542496;75;715;-58
2022/11/01 06:44:11;;;;;;;;;;;23.30;55.70;;;;;;1551034;75;831;-58
2022/11/01 06:46:13;;;;;;;;;;;23.40;55.70;;;;;;1551657;75;1129;-55
2022/11/01 06:48:15;;;;;;;;;;;23.30;55.70;;;;;;1552126;75;777;-57
2022/11/01 06:50:17;;;;;;;;;;;23.30;55.80;;;;;;1544134;75;721;-59
2022/11/01 06:52:19;;;;;;;;;;;23.30;55.80;;;;;;1567378;75;1942;-59
2022/11/01 06:54:21;;;;;;;;;;;23.30;55.80;;;;;;1541526;75;1500;-58
2022/11/01 06:56:23;;;;;;;;;;;23.40;55.90;;;;;;1546822;75;1161;-59
2022/11/01 06:58:25;;;;;;;;;;;23.30;55.90;;;;;;1543232;75;784;-58
2022/11/01 07:00:27;;;;;;;;;;;23.30;56.00;;;;;;1543765;75;907;-59
2022/11/01 07:02:29;;;;;;;;;;;23.30;55.90;;;;;;1546127;75;742;-58
2022/11/01 07:04:31;;;;;;;;;;;23.30;55.90;;;;;;1542310;75;703;-58
2022/11/01 07:06:33;;;;;;;;;;;23.30;55.90;;;;;;1541908;75;1123;-55
2022/11/01 07:08:35;;;;;;;;;;;23.30;56.10;;;;;;1542687;75;1543;-54
2022/11/01 07:10:37;;;;;;;;;;;23.30;56.00;;;;;;1550449;75;718;-57
2022/11/01 07:12:39;;;;;;;;;;;23.30;56.10;;;;;;1540417;75;1950;-57
2022/11/01 07:14:40;;;;;;;;;;;23.20;56.00;;;;;;1549065;75;721;-56
2022/11/01 07:16:42;;;;;;;;;;;23.20;56.20;;;;;;1542127;75;1141;-57
2022/11/01 07:18:44;;;;;;;;;;;23.10;56.30;;;;;;1531013;75;721;-57
2022/11/01 07:20:46;;;;;;;;;;;23.10;56.40;;;;;;1556562;75;782;-55
2022/11/01 07:22:50;;;;;;;;;;;23.00;56.40;;;;;;1546840;75;1572;-56
2022/11/01 07:24:52;;;;;;;;;;;23.00;56.50;;;;;;1550875;75;1754;-54
2022/11/01 07:26:54;;;;;;;;;;;23.10;56.80;;;;;;1555737;75;1115;-56
2022/11/01 07:28:55;;;;;;;;;;;23.00;56.80;;;;;;1548739;75;748;-57
2022/11/01 07:30:57;;;;;;;;;;;23.00;57.00;;;;;;1547838;75;743;-57
2022/11/01 07:33:00;;;;;;;;;;;23.00;56.90;;;;;;1551797;75;1944;-56
2022/11/01 07:35:02;;;;;;;;;;;23.00;57.10;;;;;;1543313;75;772;-57
2022/11/01 07:37:03;;;;;;;;;;;23.00;57.20;;;;;;1530320;75;1546;-56
2022/11/01 07:39:05;;;;;;;;;;;23.00;57.10;;;;;;1550032;75;782;-55
2022/11/01 07:41:08;;;;;;;;;;;23.00;57.30;;;;;;1551247;75;657;-54
2022/11/01 07:43:09;;;;;;;;;;;22.90;57.30;;;;;;1556997;75;707;-55
2022/11/01 07:45:12;;;;;;;;;;;22.90;57.40;;;;;;1542931;75;722;-55
2022/11/01 07:47:13;;;;;;;;;;;22.90;57.50;;;;;;1536423;75;1122;-53
2022/11/01 07:49:15;;;;;;;;;;;23.00;57.50;;;;;;1550305;75;778;-58
2022/11/01 07:51:17;;;;;;;;;;;22.90;57.50;;;;;;1544779;75;1556;-56
2022/11/01 07:53:19;;;;;;;;;;;22.90;57.60;;;;;;1535491;75;1956;-57
2022/11/01 07:55:21;;;;;;;;;;;22.80;57.40;;;;;;1532358;75;744;-57
2022/11/01 07:57:23;;;;;;;;;;;22.90;57.60;;;;;;1529544;75;1178;-56
2022/11/01 07:59:25;;;;;;;;;;;22.80;57.50;;;;;;1540727;75;808;-55
2022/11/01 08:01:27;;;;;;;;;;;22.90;57.70;;;;;;1540866;75;757;-57
2022/11/01 08:03:29;;;;;;;;;;;22.90;57.70;;;;;;1541160;75;722;-57
2022/11/01 08:05:31;;;;;;;;;;;22.90;57.70;;;;;;1548502;75;1516;-56
2022/11/01 08:07:35;;;;;;;;;;;22.80;57.70;;;;;;1545226;75;1087;-57
2022/11/01 08:09:37;;;;;;;;;;;22.90;57.80;;;;;;1535514;75;1740;-57
2022/11/01 08:11:39;;;;;;;;;;;22.80;57.60;;;;;;1542917;75;775;-57
2022/11/01 08:13:41;;;;;;;;;;;22.80;57.70;;;;;;1550027;75;1923;-57
2022/11/01 08:15:43;;;;;;;;;;;22.80;57.80;;;;;;1530142;76;738;-57
2022/11/01 08:17:45;;;;;;;;;;;22.80;57.80;;;;;;1550839;75;1076;-56
2022/11/01 08:19:47;;;;;;;;;;;22.80;57.80;;;;;;1546126;75;1567;-56
2022/11/01 08:21:51;;;;;;;;;;;22.80;57.90;;;;;;1542886;75;682;-56
2022/11/01 08:23:53;;;;;;;;;;;22.80;58.00;;;;;;1545121;75;736;-56
2022/11/01 08:25:56;;;;;;;;;;;22.80;58.00;;;;;;1546624;75;1096;-57
2022/11/01 08:28:01;;;;;;;;;;;22.80;58.00;;;;;;1547944;75;857;-57
2022/11/01 08:30:04;;;;;;;;;;;22.80;58.00;;;;;;1547702;75;769;-57
2022/11/01 08:32:05;;;;;;;;;;;22.80;58.00;;;;;;1544524;75;769;-57
2022/11/01 08:34:08;;;;;;;;;;;22.80;58.10;;;;;;1544376;75;1940;-54
2022/11/01 08:36:10;;;;;;;;;;;22.80;58.10;;;;;;1538033;75;1123;-55
2022/11/01 08:38:12;;;;;;;;;;;22.80;58.10;;;;;;1552314;75;712;-55
2022/11/01 08:40:13;;;;;;;;;;;22.80;58.20;;;;;;1545454;75;810;-57
2022/11/01 08:42:15;;;;;;;;;;;22.80;58.20;;;;;;1546736;76;779;-57
2022/11/01 08:44:18;;;;;;;;;;;22.80;58.20;;;;;;1537065;75;710;-57
2022/11/01 08:46:20;;;;;;;;;;;22.80;58.20;;;;;;1534698;75;1131;-57
2022/11/01 08:48:22;;;;;;;;;;;22.80;58.20;;;;;;1544742;75;1538;-57
2022/11/01 08:50:24;;;;;;;;;;;22.70;58.20;;;;;;1535306;75;795;-57
2022/11/01 08:52:26;;;;;;;;;;;22.80;58.20;;;;;;1542753;75;1064;-55
2022/11/01 08:54:29;;;;;;;;;;;22.70;58.20;;;;;;1543321;75;1909;-57
2022/11/01 08:56:31;;;;;;;;;;;22.80;58.30;;;;;;1534889;75;1209;-57
2022/11/01 08:58:33;;;;;;;;;;;22.70;58.20;;;;;;1541845;75;727;-57
2022/11/01 09:00:35;;;;;;;;;;;22.80;58.20;;;;;;1546363;75;755;-57
2022/11/01 09:02:36;;;;;;;;;;;22.80;58.20;;;;;;1545784;75;1774;-56
2022/11/01 09:04:38;;;;;;;;;;;22.80;58.30;;;;;;1550848;76;711;-60
2022/11/01 09:06:40;;;;;;;;;;;22.80;58.30;;;;;;1535972;75;1122;-57
2022/11/01 09:08:42;;;;;;;;;;;22.80;58.30;;;;;;1536787;75;678;-55
2022/11/01 09:10:44;;;;;;;;;;;22.80;58.30;;;;;;1543658;75;694;-56
2022/11/01 09:12:46;;;;;;;;;;;22.80;58.20;;;;;;1549591;75;1921;-55
2022/11/01 09:14:48;;;;;;;;;;;22.80;58.30;;;;;;1541205;75;1522;-57
2022/11/01 09:16:52;;;;;;;;;;;22.70;58.20;;;;;;1559763;75;1113;-56
2022/11/01 09:18:56;;;;;;;;;;;22.70;58.40;;;;;;1552808;75;779;-57
2022/11/01 09:20:58;;;;;;;;;;;22.70;58.40;;;;;;1548995;75;823;-57
2022/11/01 09:23:00;;;;;;;;;;;22.70;58.40;;;;;;1544202;75;747;-57
2022/11/01 09:25:03;;;;;;;;;;;22.80;58.50;;;;;;1546642;75;770;-57
2022/11/01 09:27:07;;;;;;;;;;;22.70;58.40;;;;;;1538099;75;1125;-57
2022/11/01 09:29:10;;;;;;;;;;;22.70;58.60;;;;;;1536713;75;1576;-57
2022/11/01 09:31:12;;;;;;;;;;;22.80;58.60;;;;;;1542960;75;898;-56
2022/11/01 09:33:14;;;;;;;;;;;22.70;58.60;;;;;;1543104;75;1954;-54
2022/11/01 09:35:17;;;;;;;;;;;22.80;58.60;;;;;;1542363;75;723;-53
2022/11/01 09:37:18;;;;;;;;;;;22.70;58.50;;;;;;1550607;75;1132;-56
2022/11/01 09:39:21;;;;;;;;;;;22.70;58.60;;;;;;1535951;75;786;-55
2022/11/01 09:41:27;;;;;;;;;;;22.70;58.70;;;;;;1539069;75;781;-55
2022/11/01 09:43:30;;;;;;;;;;;22.80;58.70;;;;;;1551060;75;1524;-57
2022/11/01 09:45:32;;;;;;;;;;;22.60;58.60;;;;;;1546132;75;732;-57
2022/11/01 09:47:34;;;;;;;;;;;22.80;58.70;;;;;;1540036;76;1089;-57
2022/11/01 09:49:37;;;;;;;;;;;22.80;58.60;;;;;;1544836;75;724;-57
2022/11/01 09:51:39;;;;;;;;;;;22.70;58.60;;;;;;1539865;75;757;-57
2022/11/01 09:53:41;;;;;;;;;;;22.70;58.70;;;;;;1556513;75;1934;-56
2022/11/01 09:55:44;;;;;;;;;;;22.80;58.70;;;;;;1545695;75;686;-57
2022/11/01 09:57:51;;;;;;;;;;;22.70;58.70;;;;;;1549999;76;1832;-56
2022/11/01 09:59:57;;;;;;;;;;;22.70;58.70;;;;;;1557673;75;1724;-58
2022/11/01 10:02:04;;;;;;;;;;;22.80;58.70;;;;;;1546525;75;1932;-57
2022/11/01 10:04:08;;;;;;;;;;;22.70;58.60;;;;;;1538467;75;740;-54
2022/11/01 10:06:11;;;;;;;;;;;22.70;58.60;;;;;;1561078;75;1910;-57
2022/11/01 10:08:23;;;;;;;;;;;22.80;58.60;;;;;;1542216;75;709;-57
2022/11/01 10:10:30;;;;;;;;;;;22.70;58.60;;;;;;1554191;75;737;-57
2022/11/01 10:12:43;;;;;;;;;;;22.70;58.50;;;;;;1553185;75;1603;-57
2022/11/01 10:14:55;;;;;;;;;;;22.80;58.50;;;;;;1554326;75;1933;-57
2022/11/01 10:16:59;;;;;;;;;;;22.80;58.50;;;;;;1550670;75;1897;-57
2022/11/01 10:19:13;;;;;;;;;;;22.80;58.50;;;;;;1547572;75;1951;-57
2022/11/01 10:21:16;;;;;;;;;;;22.80;58.60;;;;;;1559272;75;784;-57
2022/11/01 10:23:18;;;;;;;;;;;22.80;58.60;;;;;;1561144;75;741;-56
2022/11/01 10:25:21;;;;;;;;;;;22.80;58.60;;;;;;1545312;75;1582;-56
2022/11/01 10:27:39;;;;;;;;;;;22.90;58.80;;;;;;1552896;75;1145;-57
2022/11/01 10:29:52;;;;;;;;;;;22.80;59.00;;;;;;1555767;75;715;-57
2022/11/01 10:31:54;;;;;;;;;;;22.70;58.70;;;;;;1556510;75;1825;-56
2022/11/01 10:34:00;;;;;;;;;;;22.80;59.10;;;;;;1537005;76;1928;-57
2022/11/01 10:36:03;;;;;;;;;;;22.70;59.00;;;;;;1544083;75;1149;-57
2022/11/01 10:38:07;;;;;;;;;;;22.70;59.10;;;;;;1546220;75;810;-57
2022/11/01 10:40:10;;;;;;;;;;;22.70;59.10;;;;;;1560247;75;1565;-56
2022/11/01 10:42:13;;;;;;;;;;;22.70;59.10;;;;;;1561434;75;716;-57
2022/11/01 10:44:16;;;;;;;;;;;22.70;59.10;;;;;;1553506;75;1336;-56
2022/11/01 10:46:26;;;;;;;;;;;22.80;59.20;;;;;;1559028;75;1157;-56
2022/11/01 10:48:32;;;;;;;;;;;22.70;59.20;;;;;;1560030;76;707;-57
2022/11/01 10:50:34;;;;;;;;;;;22.70;59.20;;;;;;1551624;75;2076;-56
2022/11/01 10:52:40;;;;;;;;;;;22.70;59.20;;;;;;1552071;75;726;-56
2022/11/01 10:54:43;;;;;;;;;;;22.70;59.30;;;;;;1535301;75;1923;-57
2022/11/01 10:56:46;;;;;;;;;;;22.70;59.20;;;;;;1540633;75;1188;-57
2022/11/01 10:58:55;;;;;;;;;;;22.70;59.20;;;;;;1549905;75;777;-57
2022/11/01 11:00:57;;;;;;;;;;;22.70;59.20;;;;;;1550518;75;821;-57
2022/11/01 11:03:00;;;;;;;;;;;22.70;59.20;;;;;;1549973;75;627;-57
2022/11/01 11:05:03;;;;;;;;;;;22.70;59.10;;;;;;1553073;75;653;-56
2022/11/01 11:07:07;;;;;;;;;;;22.80;59.10;;;;;;1544745;75;1192;-57
2022/11/01 11:09:17;;;;;;;;;;;22.80;59.20;;;;;;1550534;75;1879;-55
2022/11/01 11:11:17;;;;;;;;;;;22.70;59.20;;;;;;1545502;75;1681;-57
2022/11/01 11:13:19;;;;;;;;;;;22.80;59.10;;;;;;1542404;75;671;-56
2022/11/01 11:15:35;;;;;;;;;;;22.70;59.10;;;;;;1541043;75;1959;-55
2022/11/01 11:17:38;;;;;;;;;;;22.70;59.10;;;;;;1539510;75;1146;-57
2022/11/01 11:19:42;;;;;;;;;;;22.80;59.20;;;;;;1538992;76;756;-56
2022/11/01 11:21:43;;;;;;;;;;;22.70;59.10;;;;;;1544347;75;1945;-57
2022/11/01 11:23:45;;;;;;;;;;;22.70;59.20;;;;;;1544434;75;763;-57
2022/11/01 11:25:49;;;;;;;;;;;22.70;59.20;;;;;;1546853;75;741;-56
2022/11/01 11:27:51;;;;;;;;;;;22.70;59.20;;;;;;1540964;75;767;-57
2022/11/01 11:30:12;;;;;;;;;;;22.80;59.20;;;;;;1549038;75;750;-54
2022/11/01 11:32:13;;;;;;;;;;;22.70;59.20;;;;;;1534255;76;1679;-54
2022/11/01 11:34:22;;;;;;;;;;;22.80;59.20;;;;;;1549362;75;1936;-56
2022/11/01 11:36:31;;;;;;;;;;;22.80;59.20;;;;;;1540820;75;1599;-57
2022/11/01 11:38:40;;;;;;;;;;;22.70;59.20;;;;;;1547200;76;962;-57
2022/11/01 11:40:43;;;;;;;;;;;22.70;59.20;;;;;;1542068;76;612;-57
2022/11/01 11:42:47;;;;;;;;;;;22.70;59.20;;;;;;1550767;75;627;-54
2022/11/01 11:44:50;;;;;;;;;;;22.70;59.20;;;;;;1544704;75;764;-54
2022/11/01 11:46:58;;;;;;;;;;;22.70;59.20;;;;;;1537739;75;1153;-56
2022/11/01 11:49:03;;;;;;;;;;;22.80;59.20;;;;;;1543152;75;677;-55
2022/11/01 11:51:04;;;;;;;;;;;22.70;59.20;;;;;;1541440;75;1509;-57
2022/11/01 11:53:08;;;;;;;;;;;22.70;59.30;;;;;;1553818;75;725;-55
2022/11/01 11:55:26;;;;;;;;;;;22.70;59.20;;;;;;1547682;75;1942;-57
2022/11/01 11:57:29;;;;;;;;;;;22.70;59.20;;;;;;1559728;75;1129;-54
2022/11/01 11:59:31;;;;;;;;;;;22.70;59.20;;;;;;1553831;75;763;-54
2022/11/01 12:01:33;;;;;;;;;;;22.70;59.20;;;;;;1547257;75;663;-54
2022/11/01 12:03:39;;;;;;;;;;;22.80;59.20;;;;;;1538448;75;1537;-54
2022/11/01 12:05:42;;;;;;;;;;;22.70;59.20;;;;;;1538640;75;1803;-54
2022/11/01 12:07:48;;;;;;;;;;;22.80;59.20;;;;;;1542466;75;1186;-57
2022/11/01 12:09:50;;;;;;;;;;;22.80;59.20;;;;;;1545474;75;643;-57
2022/11/01 12:11:52;;;;;;;;;;;22.70;59.20;;;;;;1547653;75;762;-56
2022/11/01 12:14:04;;;;;;;;;;;22.80;59.20;;;;;;1546759;75;1929;-52
2022/11/01 12:16:16;;;;;;;;;;;22.80;59.20;;;;;;1538179;75;1103;-54
2022/11/01 12:18:19;;;;;;;;;;;22.80;59.20;;;;;;1533691;75;1515;-54
2022/11/01 12:20:21;;;;;;;;;;;22.80;59.20;;;;;;1548547;75;748;-57